Lubers, Colorado
Current Conditions -  °F | °C
As of 1:53 PM on Tuesday 21 Oct 2014 (Local Time) from KLAA Reporting Station
Clear Clear  
Wind Chill: 81°   Ceiling: Unl
Heat Index: 81°   Visibility: 10mi
Dew Point: 41°   Wind: 17mph
Humidity: 24%   Direction: 190°S
Pressure: 29.94"   Gusts: 30mph
Location:  38.0584°N, 102.928°W
Report Text: KLAA 211953Z AUTO 19015G26KT 10SM CLR 27/05 A2994 RMK AO2 PK WND 20026/1948 SLP105 T02720050
Loading
Personal Weather Stations






























Interactive Weather Map
Tropical Storm Tracking
New forecast layout! Learn more

10-Day Weather Forecast

Advertisements
Track Severe Weather on mobile